sensor_id;sensor_type;location;lat;lon;timestamp;P1;durP1;ratioP1;P2;durP2;ratioP2
45534;SDS011;35892;48.798;9.698;2022-08-14T00:02:19;2.88;;;1.90;;
45534;SDS011;35892;48.798;9.698;2022-08-14T00:04:49;2.58;;;2.08;;
45534;SDS011;35892;48.798;9.698;2022-08-14T00:07:18;2.47;;;2.28;;
45534;SDS011;35892;48.798;9.698;2022-08-14T00:09:47;2.70;;;2.20;;
45534;SDS011;35892;48.798;9.698;2022-08-14T00:12:37;4.88;;;2.53;;
45534;SDS011;35892;48.798;9.698;2022-08-14T00:15:10;2.80;;;2.60;;
45534;SDS011;35892;48.798;9.698;2022-08-14T00:17:40;4.03;;;2.58;;
45534;SDS011;35892;48.798;9.698;2022-08-14T00:20:13;3.63;;;2.60;;
45534;SDS011;35892;48.798;9.698;2022-08-14T00:22:51;2.20;;;2.00;;
45534;SDS011;35892;48.798;9.698;2022-08-14T00:25:23;2.65;;;2.25;;
45534;SDS011;35892;48.798;9.698;2022-08-14T00:28:08;5.88;;;2.30;;
45534;SDS011;35892;48.798;9.698;2022-08-14T00:30:43;4.68;;;2.67;;
45534;SDS011;35892;48.798;9.698;2022-08-14T00:33:11;2.50;;;2.30;;
45534;SDS011;35892;48.798;9.698;2022-08-14T00:35:43;5.45;;;2.50;;
45534;SDS011;35892;48.798;9.698;2022-08-14T00:38:32;2.60;;;2.40;;
45534;SDS011;35892;48.798;9.698;2022-08-14T00:41:03;2.35;;;2.15;;
45534;SDS011;35892;48.798;9.698;2022-08-14T00:43:38;3.28;;;2.85;;
45534;SDS011;35892;48.798;9.698;2022-08-14T00:46:09;2.85;;;2.33;;
45534;SDS011;35892;48.798;9.698;2022-08-14T00:48:57;3.25;;;2.90;;
45534;SDS011;35892;48.798;9.698;2022-08-14T00:51:24;2.60;;;2.40;;
45534;SDS011;35892;48.798;9.698;2022-08-14T00:54:03;4.78;;;2.55;;
45534;SDS011;35892;48.798;9.698;2022-08-14T00:56:48;2.65;;;2.45;;
45534;SDS011;35892;48.798;9.698;2022-08-14T00:59:22;2.95;;;2.65;;
45534;SDS011;35892;48.798;9.698;2022-08-14T01:01:55;3.22;;;2.92;;
45534;SDS011;35892;48.798;9.698;2022-08-14T01:04:26;3.55;;;3.25;;
45534;SDS011;35892;48.798;9.698;2022-08-14T01:07:18;4.07;;;3.00;;
45534;SDS011;35892;48.798;9.698;2022-08-14T01:09:49;3.20;;;2.90;;
45534;SDS011;35892;48.798;9.698;2022-08-14T01:12:24;3.28;;;2.78;;
45534;SDS011;35892;48.798;9.698;2022-08-14T01:14:59;4.20;;;2.47;;
45534;SDS011;35892;48.798;9.698;2022-08-14T01:17:34;4.07;;;3.30;;
45534;SDS011;35892;48.798;9.698;2022-08-14T01:20:20;2.92;;;2.72;;
45534;SDS011;35892;48.798;9.698;2022-08-14T01:23:13;3.33;;;3.00;;
45534;SDS011;35892;48.798;9.698;2022-08-14T01:25:43;4.03;;;3.10;;
45534;SDS011;35892;48.798;9.698;2022-08-14T01:28:12;2.67;;;2.47;;
45534;SDS011;35892;48.798;9.698;2022-08-14T01:31:01;2.85;;;2.55;;
45534;SDS011;35892;48.798;9.698;2022-08-14T01:33:34;3.38;;;3.08;;
45534;SDS011;35892;48.798;9.698;2022-08-14T01:36:24;3.20;;;2.83;;
45534;SDS011;35892;48.798;9.698;2022-08-14T01:39:02;3.70;;;2.42;;
45534;SDS011;35892;48.798;9.698;2022-08-14T01:41:41;4.32;;;3.10;;
45534;SDS011;35892;48.798;9.698;2022-08-14T01:44:21;3.55;;;2.90;;
45534;SDS011;35892;48.798;9.698;2022-08-14T01:46:59;3.70;;;3.17;;
45534;SDS011;35892;48.798;9.698;2022-08-14T01:49:47;3.00;;;2.70;;
45534;SDS011;35892;48.798;9.698;2022-08-14T01:52:25;3.10;;;2.80;;
45534;SDS011;35892;48.798;9.698;2022-08-14T01:55:12;3.05;;;2.85;;
45534;SDS011;35892;48.798;9.698;2022-08-14T01:57:43;2.90;;;2.58;;
45534;SDS011;35892;48.798;9.698;2022-08-14T02:00:27;3.00;;;2.55;;
45534;SDS011;35892;48.798;9.698;2022-08-14T02:03:04;3.58;;;2.70;;
45534;SDS011;35892;48.798;9.698;2022-08-14T02:05:32;4.30;;;2.85;;
45534;SDS011;35892;48.798;9.698;2022-08-14T02:10:35;3.25;;;2.63;;
45534;SDS011;35892;48.798;9.698;2022-08-14T02:13:12;2.92;;;2.70;;
45534;SDS011;35892;48.798;9.698;2022-08-14T02:15:44;3.10;;;2.80;;
45534;SDS011;35892;48.798;9.698;2022-08-14T02:18:15;3.78;;;3.22;;
45534;SDS011;35892;48.798;9.698;2022-08-14T02:20:43;3.00;;;2.72;;
45534;SDS011;35892;48.798;9.698;2022-08-14T02:23:12;3.88;;;3.13;;
45534;SDS011;35892;48.798;9.698;2022-08-14T02:25:41;3.25;;;2.95;;
45534;SDS011;35892;48.798;9.698;2022-08-14T02:28:19;3.55;;;3.03;;
45534;SDS011;35892;48.798;9.698;2022-08-14T02:31:06;3.20;;;2.90;;
45534;SDS011;35892;48.798;9.698;2022-08-14T02:33:40;5.63;;;2.90;;
45534;SDS011;35892;48.798;9.698;2022-08-14T02:36:12;3.40;;;2.95;;
45534;SDS011;35892;48.798;9.698;2022-08-14T02:39:01;3.38;;;3.08;;
45534;SDS011;35892;48.798;9.698;2022-08-14T02:41:33;3.60;;;3.10;;
45534;SDS011;35892;48.798;9.698;2022-08-14T02:44:06;3.38;;;3.08;;
45534;SDS011;35892;48.798;9.698;2022-08-14T02:46:39;3.30;;;3.00;;
45534;SDS011;35892;48.798;9.698;2022-08-14T02:49:17;7.57;;;3.38;;
45534;SDS011;35892;48.798;9.698;2022-08-14T02:51:59;3.40;;;3.10;;
45534;SDS011;35892;48.798;9.698;2022-08-14T02:54:33;4.55;;;3.38;;
45534;SDS011;35892;48.798;9.698;2022-08-14T02:57:03;7.07;;;3.47;;
45534;SDS011;35892;48.798;9.698;2022-08-14T02:59:42;3.28;;;2.97;;
45534;SDS011;35892;48.798;9.698;2022-08-14T03:02:11;4.30;;;2.92;;
45534;SDS011;35892;48.798;9.698;2022-08-14T03:04:58;3.65;;;3.00;;
45534;SDS011;35892;48.798;9.698;2022-08-14T03:07:25;3.60;;;2.70;;
45534;SDS011;35892;48.798;9.698;2022-08-14T03:09:55;5.57;;;3.50;;
45534;SDS011;35892;48.798;9.698;2022-08-14T03:12:44;3.15;;;2.85;;
45534;SDS011;35892;48.798;9.698;2022-08-14T03:15:12;3.45;;;3.15;;
45534;SDS011;35892;48.798;9.698;2022-08-14T03:17:46;4.68;;;4.18;;
45534;SDS011;35892;48.798;9.698;2022-08-14T03:20:27;4.35;;;3.50;;
45534;SDS011;35892;48.798;9.698;2022-08-14T03:22:58;3.45;;;3.25;;
45534;SDS011;35892;48.798;9.698;2022-08-14T03:25:29;4.57;;;3.40;;
45534;SDS011;35892;48.798;9.698;2022-08-14T03:28:02;3.60;;;3.30;;
45534;SDS011;35892;48.798;9.698;2022-08-14T03:30:56;5.10;;;3.50;;
45534;SDS011;35892;48.798;9.698;2022-08-14T03:33:28;4.07;;;3.33;;
45534;SDS011;35892;48.798;9.698;2022-08-14T03:36:03;3.42;;;3.13;;
45534;SDS011;35892;48.798;9.698;2022-08-14T03:38:55;3.90;;;3.50;;
45534;SDS011;35892;48.798;9.698;2022-08-14T03:41:44;3.33;;;3.03;;
45534;SDS011;35892;48.798;9.698;2022-08-14T03:44:13;5.88;;;4.00;;
45534;SDS011;35892;48.798;9.698;2022-08-14T03:47:00;4.25;;;3.35;;
45534;SDS011;35892;48.798;9.698;2022-08-14T03:49:30;4.13;;;3.47;;
45534;SDS011;35892;48.798;9.698;2022-08-14T03:51:59;4.45;;;3.13;;
45534;SDS011;35892;48.798;9.698;2022-08-14T03:54:52;5.53;;;3.58;;
45534;SDS011;35892;48.798;9.698;2022-08-14T03:57:19;3.70;;;3.33;;
45534;SDS011;35892;48.798;9.698;2022-08-14T03:59:49;3.50;;;3.20;;
45534;SDS011;35892;48.798;9.698;2022-08-14T04:02:18;4.47;;;3.45;;
45534;SDS011;35892;48.798;9.698;2022-08-14T04:05:02;5.18;;;3.42;;
45534;SDS011;35892;48.798;9.698;2022-08-14T04:07:38;3.97;;;3.30;;
45534;SDS011;35892;48.798;9.698;2022-08-14T04:10:25;3.40;;;3.10;;
45534;SDS011;35892;48.798;9.698;2022-08-14T04:12:57;4.40;;;3.55;;
45534;SDS011;35892;48.798;9.698;2022-08-14T04:15:29;3.78;;;3.47;;
45534;SDS011;35892;48.798;9.698;2022-08-14T04:18:18;4.47;;;3.80;;
45534;SDS011;35892;48.798;9.698;2022-08-14T04:20:45;4.60;;;3.30;;
45534;SDS011;35892;48.798;9.698;2022-08-14T04:23:21;3.70;;;3.20;;
45534;SDS011;35892;48.798;9.698;2022-08-14T04:25:55;3.53;;;3.20;;
45534;SDS011;35892;48.798;9.698;2022-08-14T04:28:21;3.42;;;3.13;;
45534;SDS011;35892;48.798;9.698;2022-08-14T04:31:09;3.85;;;3.55;;
45534;SDS011;35892;48.798;9.698;2022-08-14T04:33:36;3.92;;;3.63;;
45534;SDS011;35892;48.798;9.698;2022-08-14T04:36:09;4.47;;;3.28;;
45534;SDS011;35892;48.798;9.698;2022-08-14T04:38:42;3.60;;;3.30;;
45534;SDS011;35892;48.798;9.698;2022-08-14T04:41:33;4.18;;;3.78;;
45534;SDS011;35892;48.798;9.698;2022-08-14T04:44:19;3.60;;;3.30;;
45534;SDS011;35892;48.798;9.698;2022-08-14T04:47:03;4.72;;;3.67;;
45534;SDS011;35892;48.798;9.698;2022-08-14T04:49:51;3.38;;;3.08;;
45534;SDS011;35892;48.798;9.698;2022-08-14T04:52:23;4.47;;;3.47;;
45534;SDS011;35892;48.798;9.698;2022-08-14T04:54:50;3.90;;;3.58;;
45534;SDS011;35892;48.798;9.698;2022-08-14T04:57:19;3.85;;;2.92;;
45534;SDS011;35892;48.798;9.698;2022-08-14T04:59:48;3.53;;;3.22;;
45534;SDS011;35892;48.798;9.698;2022-08-14T05:02:16;3.80;;;3.50;;
45534;SDS011;35892;48.798;9.698;2022-08-14T05:04:48;6.45;;;3.22;;
45534;SDS011;35892;48.798;9.698;2022-08-14T05:07:23;3.95;;;3.35;;
45534;SDS011;35892;48.798;9.698;2022-08-14T05:10:12;5.68;;;3.20;;
45534;SDS011;35892;48.798;9.698;2022-08-14T05:12:47;5.13;;;3.45;;
45534;SDS011;35892;48.798;9.698;2022-08-14T05:15:36;4.57;;;3.38;;
45534;SDS011;35892;48.798;9.698;2022-08-14T05:18:07;3.95;;;3.55;;
45534;SDS011;35892;48.798;9.698;2022-08-14T05:21:04;3.42;;;3.08;;
45534;SDS011;35892;48.798;9.698;2022-08-14T05:23:54;3.60;;;3.20;;
45534;SDS011;35892;48.798;9.698;2022-08-14T05:26:26;3.03;;;2.83;;
45534;SDS011;35892;48.798;9.698;2022-08-14T05:28:53;4.70;;;3.60;;
45534;SDS011;35892;48.798;9.698;2022-08-14T05:31:22;4.13;;;3.55;;
45534;SDS011;35892;48.798;9.698;2022-08-14T05:36:34;3.63;;;3.33;;
45534;SDS011;35892;48.798;9.698;2022-08-14T05:39:04;4.07;;;3.75;;
45534;SDS011;35892;48.798;9.698;2022-08-14T05:41:33;4.20;;;3.83;;
45534;SDS011;35892;48.798;9.698;2022-08-14T05:44:19;3.60;;;3.30;;
45534;SDS011;35892;48.798;9.698;2022-08-14T05:46:46;3.50;;;3.20;;
45534;SDS011;35892;48.798;9.698;2022-08-14T05:49:13;3.97;;;3.58;;
45534;SDS011;35892;48.798;9.698;2022-08-14T05:51:44;3.95;;;3.58;;
45534;SDS011;35892;48.798;9.698;2022-08-14T05:54:14;4.05;;;3.33;;
45534;SDS011;35892;48.798;9.698;2022-08-14T05:56:55;4.97;;;3.42;;
45534;SDS011;35892;48.798;9.698;2022-08-14T05:59:22;3.90;;;3.60;;
45534;SDS011;35892;48.798;9.698;2022-08-14T06:02:02;4.30;;;3.90;;
45534;SDS011;35892;48.798;9.698;2022-08-14T06:04:31;4.35;;;3.60;;
45534;SDS011;35892;48.798;9.698;2022-08-14T06:06:58;3.92;;;3.35;;
45534;SDS011;35892;48.798;9.698;2022-08-14T06:09:27;3.72;;;3.42;;
45534;SDS011;35892;48.798;9.698;2022-08-14T06:12:00;3.50;;;3.20;;
45534;SDS011;35892;48.798;9.698;2022-08-14T06:14:27;3.78;;;3.47;;
45534;SDS011;35892;48.798;9.698;2022-08-14T06:16:57;4.20;;;3.30;;
45534;SDS011;35892;48.798;9.698;2022-08-14T06:19:24;4.70;;;3.55;;
45534;SDS011;35892;48.798;9.698;2022-08-14T06:21:52;5.30;;;3.10;;
45534;SDS011;35892;48.798;9.698;2022-08-14T06:24:24;3.13;;;2.85;;
45534;SDS011;35892;48.798;9.698;2022-08-14T06:26:51;3.28;;;2.97;;
45534;SDS011;35892;48.798;9.698;2022-08-14T06:29:30;4.35;;;3.10;;
45534;SDS011;35892;48.798;9.698;2022-08-14T06:32:00;5.13;;;3.15;;
45534;SDS011;35892;48.798;9.698;2022-08-14T06:34:47;3.30;;;2.80;;
45534;SDS011;35892;48.798;9.698;2022-08-14T06:37:40;4.60;;;3.53;;
45534;SDS011;35892;48.798;9.698;2022-08-14T06:40:13;5.47;;;3.00;;
45534;SDS011;35892;48.798;9.698;2022-08-14T06:42:53;3.22;;;2.90;;
45534;SDS011;35892;48.798;9.698;2022-08-14T06:45:25;3.78;;;3.08;;
45534;SDS011;35892;48.798;9.698;2022-08-14T06:47:55;2.50;;;2.30;;
45534;SDS011;35892;48.798;9.698;2022-08-14T06:50:26;3.33;;;2.90;;
45534;SDS011;35892;48.798;9.698;2022-08-14T06:52:56;3.42;;;2.50;;
45534;SDS011;35892;48.798;9.698;2022-08-14T06:55:23;4.10;;;2.78;;
45534;SDS011;35892;48.798;9.698;2022-08-14T06:57:57;3.70;;;3.17;;
45534;SDS011;35892;48.798;9.698;2022-08-14T07:00:28;2.70;;;2.50;;
45534;SDS011;35892;48.798;9.698;2022-08-14T07:02:56;6.20;;;2.75;;
45534;SDS011;35892;48.798;9.698;2022-08-14T07:05:42;6.45;;;2.70;;
45534;SDS011;35892;48.798;9.698;2022-08-14T07:08:27;4.45;;;2.67;;
45534;SDS011;35892;48.798;9.698;2022-08-14T07:10:57;3.90;;;2.97;;
45534;SDS011;35892;48.798;9.698;2022-08-14T07:13:26;5.60;;;3.33;;
45534;SDS011;35892;48.798;9.698;2022-08-14T07:15:56;3.97;;;2.70;;
45534;SDS011;35892;48.798;9.698;2022-08-14T07:18:31;4.05;;;2.30;;
45534;SDS011;35892;48.798;9.698;2022-08-14T07:20:59;3.83;;;2.45;;
45534;SDS011;35892;48.798;9.698;2022-08-14T07:23:30;2.30;;;2.10;;
45534;SDS011;35892;48.798;9.698;2022-08-14T07:26:00;4.40;;;2.30;;
45534;SDS011;35892;48.798;9.698;2022-08-14T07:31:01;3.75;;;2.55;;
45534;SDS011;35892;48.798;9.698;2022-08-14T07:33:38;3.85;;;2.63;;
45534;SDS011;35892;48.798;9.698;2022-08-14T07:36:16;3.95;;;2.67;;
45534;SDS011;35892;48.798;9.698;2022-08-14T07:38:59;2.20;;;2.00;;
45534;SDS011;35892;48.798;9.698;2022-08-14T07:41:37;2.42;;;2.20;;
45534;SDS011;35892;48.798;9.698;2022-08-14T07:44:07;3.08;;;2.28;;
45534;SDS011;35892;48.798;9.698;2022-08-14T07:46:57;2.50;;;2.30;;
45534;SDS011;35892;48.798;9.698;2022-08-14T07:49:24;5.53;;;2.83;;
45534;SDS011;35892;48.798;9.698;2022-08-14T07:51:54;3.53;;;2.75;;
45534;SDS011;35892;48.798;9.698;2022-08-14T07:54:25;3.30;;;2.60;;
45534;SDS011;35892;48.798;9.698;2022-08-14T07:56:57;3.97;;;2.47;;
45534;SDS011;35892;48.798;9.698;2022-08-14T07:59:31;2.28;;;2.03;;
45534;SDS011;35892;48.798;9.698;2022-08-14T08:02:08;2.65;;;2.45;;
45534;SDS011;35892;48.798;9.698;2022-08-14T08:04:49;2.53;;;2.20;;
45534;SDS011;35892;48.798;9.698;2022-08-14T08:07:25;2.45;;;2.25;;
45534;SDS011;35892;48.798;9.698;2022-08-14T08:09:56;3.35;;;2.20;;
45534;SDS011;35892;48.798;9.698;2022-08-14T08:12:26;3.08;;;2.20;;
45534;SDS011;35892;48.798;9.698;2022-08-14T08:14:57;2.30;;;2.10;;
45534;SDS011;35892;48.798;9.698;2022-08-14T08:17:36;3.50;;;2.05;;
45534;SDS011;35892;48.798;9.698;2022-08-14T08:20:11;2.40;;;1.80;;
45534;SDS011;35892;48.798;9.698;2022-08-14T08:22:48;3.30;;;2.00;;
45534;SDS011;35892;48.798;9.698;2022-08-14T08:25:32;2.72;;;1.90;;
45534;SDS011;35892;48.798;9.698;2022-08-14T08:28:08;2.22;;;2.00;;
45534;SDS011;35892;48.798;9.698;2022-08-14T08:30:53;2.30;;;1.52;;
45534;SDS011;35892;48.798;9.698;2022-08-14T08:33:29;1.88;;;1.67;;
45534;SDS011;35892;48.798;9.698;2022-08-14T08:36:04;2.10;;;1.90;;
45534;SDS011;35892;48.798;9.698;2022-08-14T08:38:38;2.03;;;1.80;;
45534;SDS011;35892;48.798;9.698;2022-08-14T08:41:25;2.40;;;2.10;;
45534;SDS011;35892;48.798;9.698;2022-08-14T08:46:30;2.25;;;1.85;;
45534;SDS011;35892;48.798;9.698;2022-08-14T08:49:00;2.40;;;1.95;;
45534;SDS011;35892;48.798;9.698;2022-08-14T08:51:30;2.33;;;1.92;;
45534;SDS011;35892;48.798;9.698;2022-08-14T08:56:47;1.67;;;1.58;;
45534;SDS011;35892;48.798;9.698;2022-08-14T08:59:25;1.98;;;1.70;;
45534;SDS011;35892;48.798;9.698;2022-08-14T09:02:00;2.80;;;2.20;;
45534;SDS011;35892;48.798;9.698;2022-08-14T09:07:24;1.92;;;1.70;;
45534;SDS011;35892;48.798;9.698;2022-08-14T09:09:56;2.63;;;1.73;;
45534;SDS011;35892;48.798;9.698;2022-08-14T09:12:26;1.73;;;1.63;;
45534;SDS011;35892;48.798;9.698;2022-08-14T09:14:58;1.88;;;1.75;;
45534;SDS011;35892;48.798;9.698;2022-08-14T09:17:26;1.88;;;1.73;;
45534;SDS011;35892;48.798;9.698;2022-08-14T09:19:54;2.95;;;1.92;;
45534;SDS011;35892;48.798;9.698;2022-08-14T09:22:21;2.08;;;1.80;;
45534;SDS011;35892;48.798;9.698;2022-08-14T09:25:01;2.38;;;1.80;;
45534;SDS011;35892;48.798;9.698;2022-08-14T09:27:35;4.00;;;2.10;;
45534;SDS011;35892;48.798;9.698;2022-08-14T09:30:07;2.13;;;1.90;;
45534;SDS011;35892;48.798;9.698;2022-08-14T09:50:15;3.58;;;2.20;;
45534;SDS011;35892;48.798;9.698;2022-08-14T09:52:52;2.25;;;1.90;;
45534;SDS011;35892;48.798;9.698;2022-08-14T09:58:02;2.60;;;2.20;;
45534;SDS011;35892;48.798;9.698;2022-08-14T10:00:49;3.00;;;2.20;;
45534;SDS011;35892;48.798;9.698;2022-08-14T10:03:28;2.65;;;2.25;;
45534;SDS011;35892;48.798;9.698;2022-08-14T10:06:06;2.42;;;2.22;;
45534;SDS011;35892;48.798;9.698;2022-08-14T10:08:42;2.20;;;2.00;;
45534;SDS011;35892;48.798;9.698;2022-08-14T10:11:23;2.47;;;2.10;;
45534;SDS011;35892;48.798;9.698;2022-08-14T10:14:19;3.47;;;2.70;;
45534;SDS011;35892;48.798;9.698;2022-08-14T10:17:01;4.55;;;2.35;;
45534;SDS011;35892;48.798;9.698;2022-08-14T10:19:32;2.90;;;2.30;;
45534;SDS011;35892;48.798;9.698;2022-08-14T10:24:48;4.00;;;2.60;;
45534;SDS011;35892;48.798;9.698;2022-08-14T10:27:20;2.92;;;2.17;;
45534;SDS011;35892;48.798;9.698;2022-08-14T10:29:57;2.30;;;2.10;;
45534;SDS011;35892;48.798;9.698;2022-08-14T10:32:26;2.58;;;2.38;;
45534;SDS011;35892;48.798;9.698;2022-08-14T10:35:14;4.57;;;2.30;;
45534;SDS011;35892;48.798;9.698;2022-08-14T10:37:44;4.65;;;2.53;;
45534;SDS011;35892;48.798;9.698;2022-08-14T10:43:14;2.58;;;2.35;;
45534;SDS011;35892;48.798;9.698;2022-08-14T10:45:51;2.42;;;2.20;;
45534;SDS011;35892;48.798;9.698;2022-08-14T10:48:56;3.70;;;2.50;;
45534;SDS011;35892;48.798;9.698;2022-08-14T10:51:25;2.50;;;2.20;;
45534;SDS011;35892;48.798;9.698;2022-08-14T10:53:58;3.25;;;2.40;;
45534;SDS011;35892;48.798;9.698;2022-08-14T10:56:53;2.85;;;2.58;;
45534;SDS011;35892;48.798;9.698;2022-08-14T10:59:20;2.97;;;2.10;;
45534;SDS011;35892;48.798;9.698;2022-08-14T11:02:01;2.60;;;2.40;;
45534;SDS011;35892;48.798;9.698;2022-08-14T11:05:15;2.55;;;2.20;;
45534;SDS011;35892;48.798;9.698;2022-08-14T11:10:42;2.38;;;2.10;;
45534;SDS011;35892;48.798;9.698;2022-08-14T11:13:25;3.20;;;2.50;;
45534;SDS011;35892;48.798;9.698;2022-08-14T11:15:56;2.33;;;2.13;;
45534;SDS011;35892;48.798;9.698;2022-08-14T11:18:30;3.42;;;2.42;;
45534;SDS011;35892;48.798;9.698;2022-08-14T11:21:05;2.90;;;2.55;;
45534;SDS011;35892;48.798;9.698;2022-08-14T11:23:35;3.97;;;2.80;;
45534;SDS011;35892;48.798;9.698;2022-08-14T11:26:09;2.38;;;2.15;;
45534;SDS011;35892;48.798;9.698;2022-08-14T11:28:41;2.58;;;2.30;;
45534;SDS011;35892;48.798;9.698;2022-08-14T11:31:17;3.25;;;2.45;;
45534;SDS011;35892;48.798;9.698;2022-08-14T11:34:06;2.53;;;2.20;;
45534;SDS011;35892;48.798;9.698;2022-08-14T11:36:53;2.65;;;2.22;;
45534;SDS011;35892;48.798;9.698;2022-08-14T11:39:41;2.63;;;2.42;;
45534;SDS011;35892;48.798;9.698;2022-08-14T11:42:18;2.58;;;2.38;;
45534;SDS011;35892;48.798;9.698;2022-08-14T11:45:11;4.53;;;2.78;;
45534;SDS011;35892;48.798;9.698;2022-08-14T11:47:43;3.22;;;2.88;;
45534;SDS011;35892;48.798;9.698;2022-08-14T11:50:32;2.80;;;2.60;;
45534;SDS011;35892;48.798;9.698;2022-08-14T11:53:06;3.35;;;2.47;;
45534;SDS011;35892;48.798;9.698;2022-08-14T11:55:53;3.10;;;2.42;;
45534;SDS011;35892;48.798;9.698;2022-08-14T11:58:28;3.88;;;2.60;;
45534;SDS011;35892;48.798;9.698;2022-08-14T12:01:03;3.78;;;2.42;;
45534;SDS011;35892;48.798;9.698;2022-08-14T12:06:20;2.75;;;2.33;;
45534;SDS011;35892;48.798;9.698;2022-08-14T12:09:00;2.70;;;2.50;;
45534;SDS011;35892;48.798;9.698;2022-08-14T12:11:39;2.70;;;2.50;;
45534;SDS011;35892;48.798;9.698;2022-08-14T12:14:12;2.85;;;2.35;;
45534;SDS011;35892;48.798;9.698;2022-08-14T12:17:03;3.80;;;2.40;;
45534;SDS011;35892;48.798;9.698;2022-08-14T12:19:45;2.97;;;2.45;;
45534;SDS011;35892;48.798;9.698;2022-08-14T12:22:17;4.28;;;2.47;;
45534;SDS011;35892;48.798;9.698;2022-08-14T12:24:55;2.72;;;2.47;;
45534;SDS011;35892;48.798;9.698;2022-08-14T12:27:22;3.78;;;2.72;;
45534;SDS011;35892;48.798;9.698;2022-08-14T12:30:03;3.42;;;3.13;;
45534;SDS011;35892;48.798;9.698;2022-08-14T12:32:41;3.65;;;2.30;;
45534;SDS011;35892;48.798;9.698;2022-08-14T12:35:09;3.03;;;2.15;;
45534;SDS011;35892;48.798;9.698;2022-08-14T12:37:37;3.15;;;2.30;;
45534;SDS011;35892;48.798;9.698;2022-08-14T12:40:11;3.50;;;2.38;;
45534;SDS011;35892;48.798;9.698;2022-08-14T12:42:44;3.47;;;2.22;;
45534;SDS011;35892;48.798;9.698;2022-08-14T12:45:27;4.05;;;2.53;;
45534;SDS011;35892;48.798;9.698;2022-08-14T12:47:58;2.40;;;2.20;;
45534;SDS011;35892;48.798;9.698;2022-08-14T12:50:48;2.85;;;2.00;;
45534;SDS011;35892;48.798;9.698;2022-08-14T12:53:31;2.50;;;2.30;;
45534;SDS011;35892;48.798;9.698;2022-08-14T12:56:03;2.55;;;2.28;;
45534;SDS011;35892;48.798;9.698;2022-08-14T12:58:56;5.15;;;2.30;;
45534;SDS011;35892;48.798;9.698;2022-08-14T13:01:25;3.03;;;2.10;;
45534;SDS011;35892;48.798;9.698;2022-08-14T13:04:10;2.30;;;2.10;;
45534;SDS011;35892;48.798;9.698;2022-08-14T13:06:41;3.00;;;2.13;;
45534;SDS011;35892;48.798;9.698;2022-08-14T13:09:17;2.25;;;2.05;;
45534;SDS011;35892;48.798;9.698;2022-08-14T13:11:45;3.33;;;2.33;;
45534;SDS011;35892;48.798;9.698;2022-08-14T13:14:36;2.65;;;2.03;;
45534;SDS011;35892;48.798;9.698;2022-08-14T13:17:04;2.33;;;2.13;;
45534;SDS011;35892;48.798;9.698;2022-08-14T13:19:35;2.73;;;2.00;;
45534;SDS011;35892;48.798;9.698;2022-08-14T13:22:05;1.92;;;1.80;;
45534;SDS011;35892;48.798;9.698;2022-08-14T13:24:44;2.25;;;1.90;;
45534;SDS011;35892;48.798;9.698;2022-08-14T13:27:12;2.40;;;1.77;;
45534;SDS011;35892;48.798;9.698;2022-08-14T13:29:44;2.50;;;2.28;;
45534;SDS011;35892;48.798;9.698;2022-08-14T13:32:13;2.53;;;2.00;;
45534;SDS011;35892;48.798;9.698;2022-08-14T13:34:43;3.50;;;2.20;;
45534;SDS011;35892;48.798;9.698;2022-08-14T13:37:17;2.10;;;1.90;;
45534;SDS011;35892;48.798;9.698;2022-08-14T13:39:48;2.22;;;1.85;;
45534;SDS011;35892;48.798;9.698;2022-08-14T13:42:22;2.63;;;2.00;;
45534;SDS011;35892;48.798;9.698;2022-08-14T13:44:56;2.15;;;1.95;;
45534;SDS011;35892;48.798;9.698;2022-08-14T13:47:30;1.90;;;1.80;;
45534;SDS011;35892;48.798;9.698;2022-08-14T13:49:59;2.20;;;2.00;;
45534;SDS011;35892;48.798;9.698;2022-08-14T13:55:22;2.22;;;1.80;;
45534;SDS011;35892;48.798;9.698;2022-08-14T13:57:57;2.47;;;1.90;;
45534;SDS011;35892;48.798;9.698;2022-08-14T14:00:29;1.90;;;1.77;;
45534;SDS011;35892;48.798;9.698;2022-08-14T14:03:21;2.65;;;2.00;;
45534;SDS011;35892;48.798;9.698;2022-08-14T14:05:52;2.25;;;1.80;;
45534;SDS011;35892;48.798;9.698;2022-08-14T14:08:22;4.70;;;1.90;;
45534;SDS011;35892;48.798;9.698;2022-08-14T14:11:12;1.73;;;1.63;;
45534;SDS011;35892;48.798;9.698;2022-08-14T14:13:42;1.75;;;1.65;;
45534;SDS011;35892;48.798;9.698;2022-08-14T14:16:11;2.10;;;1.90;;
45534;SDS011;35892;48.798;9.698;2022-08-14T14:18:54;2.05;;;1.88;;
45534;SDS011;35892;48.798;9.698;2022-08-14T14:21:27;1.55;;;1.45;;
45534;SDS011;35892;48.798;9.698;2022-08-14T14:23:57;1.90;;;1.63;;
45534;SDS011;35892;48.798;9.698;2022-08-14T14:26:26;2.72;;;1.60;;
45534;SDS011;35892;48.798;9.698;2022-08-14T14:29:01;3.17;;;1.88;;
45534;SDS011;35892;48.798;9.698;2022-08-14T14:31:28;2.88;;;1.67;;
45534;SDS011;35892;48.798;9.698;2022-08-14T14:33:58;3.92;;;1.60;;
45534;SDS011;35892;48.798;9.698;2022-08-14T14:36:45;2.35;;;1.98;;
45534;SDS011;35892;48.798;9.698;2022-08-14T14:39:22;1.67;;;1.58;;
45534;SDS011;35892;48.798;9.698;2022-08-14T14:41:55;1.67;;;1.58;;
45534;SDS011;35892;48.798;9.698;2022-08-14T14:44:26;2.50;;;1.67;;
45534;SDS011;35892;48.798;9.698;2022-08-14T14:46:58;2.95;;;1.63;;
45534;SDS011;35892;48.798;9.698;2022-08-14T14:49:28;1.65;;;1.55;;
45534;SDS011;35892;48.798;9.698;2022-08-14T14:52:15;1.73;;;1.60;;
45534;SDS011;35892;48.798;9.698;2022-08-14T14:55:02;2.45;;;1.85;;
45534;SDS011;35892;48.798;9.698;2022-08-14T14:57:33;2.45;;;1.90;;
45534;SDS011;35892;48.798;9.698;2022-08-14T15:00:03;2.13;;;1.80;;
45534;SDS011;35892;48.798;9.698;2022-08-14T15:02:48;3.15;;;1.50;;
45534;SDS011;35892;48.798;9.698;2022-08-14T15:05:17;1.98;;;1.77;;
45534;SDS011;35892;48.798;9.698;2022-08-14T15:07:45;2.83;;;2.17;;
45534;SDS011;35892;48.798;9.698;2022-08-14T15:10:19;2.65;;;2.13;;
45534;SDS011;35892;48.798;9.698;2022-08-14T15:12:57;1.75;;;1.58;;
45534;SDS011;35892;48.798;9.698;2022-08-14T15:15:25;3.00;;;1.80;;
45534;SDS011;35892;48.798;9.698;2022-08-14T15:17:52;3.50;;;1.77;;
45534;SDS011;35892;48.798;9.698;2022-08-14T15:20:23;2.28;;;1.70;;
45534;SDS011;35892;48.798;9.698;2022-08-14T15:22:56;2.10;;;1.73;;
45534;SDS011;35892;48.798;9.698;2022-08-14T15:25:38;1.77;;;1.50;;
45534;SDS011;35892;48.798;9.698;2022-08-14T15:28:18;1.73;;;1.60;;
45534;SDS011;35892;48.798;9.698;2022-08-14T15:30:48;1.98;;;1.80;;
45534;SDS011;35892;48.798;9.698;2022-08-14T15:33:23;1.75;;;1.65;;
45534;SDS011;35892;48.798;9.698;2022-08-14T15:36:31;1.80;;;1.40;;
45534;SDS011;35892;48.798;9.698;2022-08-14T15:39:00;1.53;;;1.43;;
45534;SDS011;35892;48.798;9.698;2022-08-14T15:41:28;2.63;;;1.80;;
45534;SDS011;35892;48.798;9.698;2022-08-14T15:44:06;2.10;;;1.63;;
45534;SDS011;35892;48.798;9.698;2022-08-14T15:46:54;1.90;;;1.45;;
45534;SDS011;35892;48.798;9.698;2022-08-14T15:49:27;3.53;;;1.63;;
45534;SDS011;35892;48.798;9.698;2022-08-14T15:51:59;1.70;;;1.40;;
45534;SDS011;35892;48.798;9.698;2022-08-14T15:54:28;1.80;;;1.55;;
45534;SDS011;35892;48.798;9.698;2022-08-14T15:59:24;1.80;;;1.70;;
45534;SDS011;35892;48.798;9.698;2022-08-14T16:01:52;2.95;;;1.70;;
45534;SDS011;35892;48.798;9.698;2022-08-14T16:04:20;1.70;;;1.60;;
45534;SDS011;35892;48.798;9.698;2022-08-14T16:06:53;2.72;;;1.50;;
45534;SDS011;35892;48.798;9.698;2022-08-14T16:09:23;1.80;;;1.70;;
45534;SDS011;35892;48.798;9.698;2022-08-14T16:11:49;1.80;;;1.60;;
45534;SDS011;35892;48.798;9.698;2022-08-14T16:14:19;2.47;;;1.85;;
45534;SDS011;35892;48.798;9.698;2022-08-14T16:16:49;2.70;;;1.63;;
45534;SDS011;35892;48.798;9.698;2022-08-14T16:19:25;1.67;;;1.58;;
45534;SDS011;35892;48.798;9.698;2022-08-14T16:21:57;1.90;;;1.40;;
45534;SDS011;35892;48.798;9.698;2022-08-14T16:24:48;2.17;;;1.30;;
45534;SDS011;35892;48.798;9.698;2022-08-14T16:27:30;1.42;;;1.33;;
45534;SDS011;35892;48.798;9.698;2022-08-14T16:30:08;1.48;;;1.38;;
45534;SDS011;35892;48.798;9.698;2022-08-14T16:32:50;2.08;;;1.60;;